sensor_id;sensor_type;location;lat;lon;timestamp;pressure;altitude;pressure_sealevel;temperature
25985;BMP280;66753;53.848;10.658;2024-01-11T00:14:45;103235.50;;;1.48
25985;BMP280;66753;53.848;10.658;2024-01-11T00:29:46;103197.53;;;1.39
25985;BMP280;66753;53.848;10.658;2024-01-11T00:44:48;103209.47;;;1.15
25985;BMP280;66753;53.848;10.658;2024-01-11T00:59:49;103212.28;;;1.14
25985;BMP280;66753;53.848;10.658;2024-01-11T01:14:51;103198.63;;;0.99
25985;BMP280;66753;53.848;10.658;2024-01-11T01:29:53;103217.72;;;0.80
25985;BMP280;66753;53.848;10.658;2024-01-11T01:44:55;103229.78;;;0.74
25985;BMP280;66753;53.848;10.658;2024-01-11T01:59:57;103247.63;;;0.71
25985;BMP280;66753;53.848;10.658;2024-01-11T02:14:58;103246.22;;;0.62
25985;BMP280;66753;53.848;10.658;2024-01-11T02:29:59;103239.59;;;0.66
25985;BMP280;66753;53.848;10.658;2024-01-11T02:45:05;103235.38;;;0.65
25985;BMP280;66753;53.848;10.658;2024-01-11T03:00:08;103236.00;;;0.67
25985;BMP280;66753;53.848;10.658;2024-01-11T03:15:10;103263.28;;;0.64
25985;BMP280;66753;53.848;10.658;2024-01-11T03:30:12;103264.06;;;0.52
25985;BMP280;66753;53.848;10.658;2024-01-11T03:45:17;103184.97;;;0.38
25985;BMP280;66753;53.848;10.658;2024-01-11T04:00:21;103183.38;;;0.31
25985;BMP280;66753;53.848;10.658;2024-01-11T04:15:25;103223.06;;;0.13
25985;BMP280;66753;53.848;10.658;2024-01-11T04:30:26;103185.38;;;0.16
25985;BMP280;66753;53.848;10.658;2024-01-11T04:45:28;103178.34;;;0.23
25985;BMP280;66753;53.848;10.658;2024-01-11T05:00:31;103197.00;;;0.20
25985;BMP280;66753;53.848;10.658;2024-01-11T05:15:32;103202.00;;;0.21
25985;BMP280;66753;53.848;10.658;2024-01-11T05:30:34;103170.94;;;0.26
25985;BMP280;66753;53.848;10.658;2024-01-11T05:45:35;103163.91;;;0.33
25985;BMP280;66753;53.848;10.658;2024-01-11T06:00:36;103186.75;;;0.18
25985;BMP280;66753;53.848;10.658;2024-01-11T06:15:38;103193.59;;;0.13
25985;BMP280;66753;53.848;10.658;2024-01-11T06:30:40;103198.03;;;0.32
25985;BMP280;66753;53.848;10.658;2024-01-11T06:45:43;103217.88;;;0.33
25985;BMP280;66753;53.848;10.658;2024-01-11T07:00:45;103204.06;;;0.52
25985;BMP280;66753;53.848;10.658;2024-01-11T07:15:46;103199.47;;;0.67
25985;BMP280;66753;53.848;10.658;2024-01-11T07:30:48;103227.16;;;0.74
25985;BMP280;66753;53.848;10.658;2024-01-11T07:45:50;103239.22;;;0.82
25985;BMP280;66753;53.848;10.658;2024-01-11T08:00:52;103191.41;;;0.94
25985;BMP280;66753;53.848;10.658;2024-01-11T08:15:55;103192.78;;;1.16
25985;BMP280;66753;53.848;10.658;2024-01-11T08:30:57;103184.94;;;1.23
25985;BMP280;66753;53.848;10.658;2024-01-11T08:45:59;103180.47;;;1.43
25985;BMP280;66753;53.848;10.658;2024-01-11T09:01:02;103168.38;;;1.48
25985;BMP280;66753;53.848;10.658;2024-01-11T09:16:04;103173.09;;;1.78
25985;BMP280;66753;53.848;10.658;2024-01-11T09:31:09;103169.44;;;2.16
25985;BMP280;66753;53.848;10.658;2024-01-11T09:46:12;103163.97;;;2.24
25985;BMP280;66753;53.848;10.658;2024-01-11T10:01:16;103182.81;;;2.57
25985;BMP280;66753;53.848;10.658;2024-01-11T10:16:18;103196.03;;;2.87
25985;BMP280;66753;53.848;10.658;2024-01-11T10:31:21;103221.72;;;2.96
25985;BMP280;66753;53.848;10.658;2024-01-11T10:46:28;103187.81;;;3.01
25985;BMP280;66753;53.848;10.658;2024-01-11T11:01:31;103158.13;;;3.25
25985;BMP280;66753;53.848;10.658;2024-01-11T11:16:32;103196.09;;;3.53
25985;BMP280;66753;53.848;10.658;2024-01-11T11:31:41;103149.84;;;3.88
25985;BMP280;66753;53.848;10.658;2024-01-11T11:46:44;103136.97;;;4.09
25985;BMP280;66753;53.848;10.658;2024-01-11T12:01:46;103095.41;;;3.95
25985;BMP280;66753;53.848;10.658;2024-01-11T12:16:56;103113.22;;;3.93
25985;BMP280;66753;53.848;10.658;2024-01-11T12:31:59;103105.72;;;4.08
25985;BMP280;66753;53.848;10.658;2024-01-11T12:47:01;103090.06;;;4.13
25985;BMP280;66753;53.848;10.658;2024-01-11T13:02:03;103068.88;;;4.26
25985;BMP280;66753;53.848;10.658;2024-01-11T13:17:07;103076.47;;;4.16
25985;BMP280;66753;53.848;10.658;2024-01-11T13:32:09;103082.31;;;4.18
25985;BMP280;66753;53.848;10.658;2024-01-11T13:47:13;103078.75;;;4.01
25985;BMP280;66753;53.848;10.658;2024-01-11T14:02:14;103068.03;;;3.91
25985;BMP280;66753;53.848;10.658;2024-01-11T14:17:16;103082.16;;;3.78
25985;BMP280;66753;53.848;10.658;2024-01-11T14:32:18;103064.59;;;3.79
25985;BMP280;66753;53.848;10.658;2024-01-11T14:47:19;103066.06;;;3.63
25985;BMP280;66753;53.848;10.658;2024-01-11T15:02:21;103094.34;;;3.31
25985;BMP280;66753;53.848;10.658;2024-01-11T15:17:22;103086.88;;;3.17
25985;BMP280;66753;53.848;10.658;2024-01-11T15:32:24;103074.63;;;2.93
25985;BMP280;66753;53.848;10.658;2024-01-11T15:47:25;103084.63;;;2.66
25985;BMP280;66753;53.848;10.658;2024-01-11T16:02:27;103085.47;;;2.24
25985;BMP280;66753;53.848;10.658;2024-01-11T16:17:28;103093.50;;;1.98
25985;BMP280;66753;53.848;10.658;2024-01-11T16:32:29;103082.97;;;1.80
25985;BMP280;66753;53.848;10.658;2024-01-11T16:47:32;103061.41;;;1.53
25985;BMP280;66753;53.848;10.658;2024-01-11T17:02:36;103065.13;;;1.33
25985;BMP280;66753;53.848;10.658;2024-01-11T17:17:38;103053.72;;;1.21
25985;BMP280;66753;53.848;10.658;2024-01-11T17:32:39;103059.03;;;1.08
25985;BMP280;66753;53.848;10.658;2024-01-11T17:47:44;103058.25;;;0.88
25985;BMP280;66753;53.848;10.658;2024-01-11T18:02:45;103065.75;;;0.78
25985;BMP280;66753;53.848;10.658;2024-01-11T18:17:46;103071.75;;;0.72
25985;BMP280;66753;53.848;10.658;2024-01-11T18:32:48;103068.38;;;0.52
25985;BMP280;66753;53.848;10.658;2024-01-11T18:47:50;103088.63;;;0.43
25985;BMP280;66753;53.848;10.658;2024-01-11T19:02:52;103088.69;;;0.24
25985;BMP280;66753;53.848;10.658;2024-01-11T19:17:55;103096.09;;;0.14
25985;BMP280;66753;53.848;10.658;2024-01-11T19:32:56;103106.50;;;0.00
25985;BMP280;66753;53.848;10.658;2024-01-11T19:48:05;103106.69;;;-0.08
25985;BMP280;66753;53.848;10.658;2024-01-11T20:03:08;103093.38;;;-0.32
25985;BMP280;66753;53.848;10.658;2024-01-11T20:18:09;103105.31;;;-0.51
25985;BMP280;66753;53.848;10.658;2024-01-11T20:33:12;103110.50;;;-0.51
25985;BMP280;66753;53.848;10.658;2024-01-11T20:48:15;103115.31;;;-0.61
25985;BMP280;66753;53.848;10.658;2024-01-11T21:03:16;103095.94;;;-0.86
25985;BMP280;66753;53.848;10.658;2024-01-11T21:18:18;103095.50;;;-0.96
25985;BMP280;66753;53.848;10.658;2024-01-11T21:33:19;103097.59;;;-1.12
25985;BMP280;66753;53.848;10.658;2024-01-11T21:48:20;103106.94;;;-1.24
25985;BMP280;66753;53.848;10.658;2024-01-11T22:03:22;103111.56;;;-1.41
25985;BMP280;66753;53.848;10.658;2024-01-11T22:18:25;103109.22;;;-1.57
25985;BMP280;66753;53.848;10.658;2024-01-11T22:33:26;103086.91;;;-1.73
25985;BMP280;66753;53.848;10.658;2024-01-11T22:48:28;103078.44;;;-1.81
25985;BMP280;66753;53.848;10.658;2024-01-11T23:03:29;103069.69;;;-1.95
25985;BMP280;66753;53.848;10.658;2024-01-11T23:18:30;103051.31;;;-2.14
25985;BMP280;66753;53.848;10.658;2024-01-11T23:33:32;103056.25;;;-2.19
25985;BMP280;66753;53.848;10.658;2024-01-11T23:48:34;103055.47;;;-2.34
